Time;durP1;ratioP1;P1;durP2;ratioP2;P2;SDS_P1;SDS_P2;PMS_P1;PMS_P2;Temp;Humidity;BMP_temperature;BMP_pressure;BME280_temperature;BME280_humidity;BME280_pressure;Samples;Min_cycle;Max_cycle;Signal;HPM_P1;HPM_P2
2022/10/20 00:02:21;;;;;;;30.45;17.45;;;14.40;99.90;;;;;;5075159;28;20094;-63
2022/10/20 00:04:48;;;;;;;33.30;17.63;;;14.40;99.90;;;;;;5075252;28;20052;-63
2022/10/20 00:07:14;;;;;;;29.85;17.38;;;14.30;99.90;;;;;;5075552;28;20399;-62
2022/10/20 00:09:41;;;;;;;33.20;18.50;;;14.30;99.90;;;;;;5075614;28;20048;-62
2022/10/20 00:12:08;;;;;;;28.42;17.25;;;14.40;99.90;;;;;;5074394;28;20071;-62
2022/10/20 00:14:34;;;;;;;28.55;17.58;;;14.40;99.90;;;;;;5075642;28;20052;-62
2022/10/20 00:17:01;;;;;;;33.00;18.33;;;14.40;99.90;;;;;;5075492;28;20041;-62
2022/10/20 00:19:28;;;;;;;33.60;17.95;;;14.40;99.90;;;;;;5075078;28;20044;-62
2022/10/20 00:21:55;;;;;;;33.17;18.58;;;14.40;99.90;;;;;;5075593;28;20067;-63
2022/10/20 00:24:21;;;;;;;27.25;18.17;;;14.40;99.90;;;;;;5074084;28;20055;-63
2022/10/20 00:26:48;;;;;;;31.35;18.55;;;14.30;99.90;;;;;;5075385;28;20068;-62
2022/10/20 00:29:15;;;;;;;30.20;18.90;;;14.30;99.90;;;;;;5075626;28;20041;-62
2022/10/20 00:31:46;;;;;;;27.90;16.85;;;14.30;99.90;;;;;;5075579;28;20087;-63
2022/10/20 00:34:13;;;;;;;31.45;18.95;;;14.30;99.90;;;;;;5075553;28;20479;-63
2022/10/20 00:36:40;;;;;;;31.88;18.25;;;14.30;99.90;;;;;;5074872;28;20040;-62
2022/10/20 00:39:06;;;;;;;32.17;18.23;;;14.30;99.90;;;;;;5074876;28;20033;-61
2022/10/20 00:41:33;;;;;;;29.05;18.85;;;14.30;99.90;;;;;;5075440;28;20420;-63
2022/10/20 00:44:00;;;;;;;27.90;18.42;;;14.30;99.90;;;;;;5074751;28;20063;-61
2022/10/20 00:46:27;;;;;;;27.77;18.02;;;14.30;99.90;;;;;;5075348;28;20068;-62
2022/10/20 00:48:53;;;;;;;31.33;19.17;;;14.30;99.90;;;;;;5074587;28;20075;-61
2022/10/20 00:51:20;;;;;;;29.50;17.52;;;14.40;99.90;;;;;;5073134;28;20127;-62
2022/10/20 00:53:47;;;;;;;32.28;18.75;;;14.40;99.90;;;;;;5073479;28;20560;-61
2022/10/20 00:56:13;;;;;;;24.25;17.50;;;14.40;99.90;;;;;;5074495;28;20089;-62
2022/10/20 00:58:40;;;;;;;28.42;18.48;;;14.40;99.90;;;;;;5075012;28;20040;-63
2022/10/20 01:01:07;;;;;;;30.27;19.60;;;14.40;99.90;;;;;;5075031;28;20036;-61
2022/10/20 01:03:34;;;;;;;28.83;18.00;;;14.40;99.90;;;;;;5074157;28;20179;-63
2022/10/20 01:06:00;;;;;;;30.15;18.65;;;14.40;99.90;;;;;;5074299;28;20536;-62
2022/10/20 01:08:27;;;;;;;29.83;19.77;;;14.50;99.90;;;;;;5073082;28;20049;-62
2022/10/20 01:10:54;;;;;;;32.35;17.83;;;14.50;99.90;;;;;;5074762;28;20048;-62
2022/10/20 01:13:20;;;;;;;29.33;18.05;;;14.50;99.90;;;;;;5074720;28;20525;-63
2022/10/20 01:15:47;;;;;;;31.50;18.80;;;14.50;99.90;;;;;;5074091;28;20455;-62
2022/10/20 01:18:14;;;;;;;30.10;17.55;;;14.50;99.90;;;;;;5072775;28;20503;-62
2022/10/20 01:20:41;;;;;;;32.97;18.85;;;14.60;99.90;;;;;;5074310;28;20040;-61
2022/10/20 01:23:07;;;;;;;26.17;17.38;;;14.60;99.90;;;;;;5074220;28;20045;-62
2022/10/20 01:25:34;;;;;;;27.88;17.52;;;14.60;99.90;;;;;;5073839;28;20083;-63
2022/10/20 01:28:01;;;;;;;24.35;18.27;;;14.60;99.90;;;;;;5074128;28;20043;-62
2022/10/20 01:30:28;;;;;;;30.17;18.83;;;14.60;99.90;;;;;;5073856;28;20483;-63
2022/10/20 01:32:55;;;;;;;32.95;19.75;;;14.60;99.90;;;;;;5073815;28;20042;-63
2022/10/20 01:35:22;;;;;;;24.80;17.98;;;14.60;99.90;;;;;;5073836;28;20040;-61
2022/10/20 01:37:48;;;;;;;27.08;18.23;;;14.60;99.90;;;;;;5073685;28;20417;-62
2022/10/20 01:40:15;;;;;;;23.77;17.42;;;14.60;99.90;;;;;;5072917;28;20128;-63
2022/10/20 01:42:42;;;;;;;25.33;16.77;;;14.70;99.90;;;;;;5073475;28;20424;-62
2022/10/20 01:45:08;;;;;;;27.02;17.60;;;14.70;99.90;;;;;;5073759;28;20349;-62
2022/10/20 01:47:35;;;;;;;27.25;17.90;;;14.70;99.90;;;;;;5072555;28;20063;-62
2022/10/20 01:50:02;;;;;;;28.73;17.70;;;14.70;99.90;;;;;;5072118;28;20036;-63
2022/10/20 01:52:29;;;;;;;27.02;17.25;;;14.70;99.90;;;;;;5073553;28;20045;-63
2022/10/20 01:54:56;;;;;;;27.23;17.08;;;14.70;99.90;;;;;;5073317;28;20479;-63
2022/10/20 01:57:22;;;;;;;32.63;18.98;;;14.80;99.90;;;;;;5073326;28;20487;-62
2022/10/20 01:59:49;;;;;;;24.58;18.00;;;14.80;99.90;;;;;;5073439;28;20395;-63
2022/10/20 02:02:16;;;;;;;27.00;18.65;;;14.80;99.90;;;;;;5072218;28;20438;-63
2022/10/20 02:04:43;;;;;;;29.45;18.52;;;14.90;99.90;;;;;;5072077;28;20048;-62
2022/10/20 02:07:09;;;;;;;24.30;18.67;;;14.90;99.90;;;;;;5073373;28;20068;-63
2022/10/20 02:09:36;;;;;;;26.52;17.60;;;15.00;99.90;;;;;;5073317;28;20044;-63
2022/10/20 02:12:03;;;;;;;30.67;19.05;;;15.00;99.90;;;;;;5073303;28;20040;-62
2022/10/20 02:14:32;;;;;;;29.85;17.92;;;15.00;99.90;;;;;;5073384;28;20128;-62
2022/10/20 02:16:58;;;;;;;30.27;18.45;;;15.00;99.90;;;;;;5073609;28;20079;-63
2022/10/20 02:19:25;;;;;;;26.70;18.27;;;15.10;99.90;;;;;;5073248;28;20546;-63
2022/10/20 02:21:52;;;;;;;27.15;18.35;;;15.10;99.90;;;;;;5073682;28;20068;-62
2022/10/20 02:24:19;;;;;;;26.42;17.52;;;15.10;99.90;;;;;;5073498;28;20044;-62
2022/10/20 02:26:45;;;;;;;26.70;17.85;;;15.10;99.90;;;;;;5073845;28;20158;-63
2022/10/20 02:29:12;;;;;;;24.38;18.27;;;15.20;99.90;;;;;;5073250;28;20464;-63
2022/10/20 02:31:39;;;;;;;25.65;18.33;;;15.20;99.90;;;;;;5073003;28;20484;-61
2022/10/20 02:34:06;;;;;;;29.25;18.67;;;15.20;99.90;;;;;;5073213;28;20098;-62
2022/10/20 02:36:32;;;;;;;22.73;17.30;;;15.20;99.90;;;;;;5073258;28;20187;-63
2022/10/20 02:38:59;;;;;;;28.15;19.58;;;15.20;99.90;;;;;;5073158;28;20113;-63
2022/10/20 02:41:26;;;;;;;28.65;18.42;;;15.20;99.90;;;;;;5072875;28;20475;-63
2022/10/20 02:43:53;;;;;;;28.35;18.48;;;15.30;99.90;;;;;;5073124;28;20048;-63
2022/10/20 02:46:19;;;;;;;34.70;20.17;;;15.30;99.90;;;;;;5073264;28;20079;-62
2022/10/20 02:48:46;;;;;;;24.77;18.15;;;15.30;99.90;;;;;;5073031;28;20510;-63
2022/10/20 02:51:13;;;;;;;31.55;18.98;;;15.30;99.90;;;;;;5073359;28;20044;-63
2022/10/20 02:53:40;;;;;;;32.17;19.75;;;15.30;99.90;;;;;;5072997;28;20044;-63
2022/10/20 02:56:07;;;;;;;40.22;19.38;;;15.30;99.90;;;;;;5073078;28;20526;-61
2022/10/20 02:58:33;;;;;;;32.63;18.63;;;15.30;99.90;;;;;;5072819;28;20040;-62
2022/10/20 03:01:00;;;;;;;34.08;19.50;;;15.30;99.90;;;;;;5073188;28;20046;-63
2022/10/20 03:03:27;;;;;;;26.13;18.88;;;15.30;99.90;;;;;;5076427;28;20110;-61
2022/10/20 03:05:53;;;;;;;30.67;18.75;;;15.30;99.90;;;;;;5077061;28;20040;-63
2022/10/20 03:08:20;;;;;;;35.20;20.33;;;15.30;99.90;;;;;;5076931;28;20037;-61
2022/10/20 03:10:47;;;;;;;32.15;19.75;;;15.30;99.90;;;;;;5076439;28;20107;-61
2022/10/20 03:13:14;;;;;;;31.67;20.67;;;15.30;99.90;;;;;;5076478;28;20391;-63
2022/10/20 03:15:41;;;;;;;30.95;19.55;;;15.30;99.90;;;;;;5076356;28;20036;-62
2022/10/20 03:18:07;;;;;;;37.08;20.48;;;15.40;99.90;;;;;;5075223;28;20064;-63
2022/10/20 03:20:34;;;;;;;36.08;19.98;;;15.40;99.90;;;;;;5076390;28;20072;-64
2022/10/20 03:23:01;;;;;;;33.90;20.23;;;15.40;99.90;;;;;;5076166;28;20048;-62
2022/10/20 03:25:28;;;;;;;31.23;19.45;;;15.40;99.90;;;;;;5076267;28;20457;-63
2022/10/20 03:27:54;;;;;;;33.40;20.02;;;15.40;99.90;;;;;;5076404;28;20044;-64
2022/10/20 03:30:21;;;;;;;32.67;20.63;;;15.40;99.90;;;;;;5076721;28;20113;-62
2022/10/20 03:32:48;;;;;;;29.92;19.50;;;15.40;99.90;;;;;;5076161;28;20469;-62
2022/10/20 03:35:15;;;;;;;34.95;20.40;;;15.40;99.90;;;;;;5075959;28;20040;-63
2022/10/20 03:37:41;;;;;;;33.72;19.05;;;15.40;99.90;;;;;;5074917;28;20131;-62
2022/10/20 03:40:08;;;;;;;35.80;19.48;;;15.40;99.90;;;;;;5075816;28;20123;-62
2022/10/20 03:42:35;;;;;;;39.40;19.75;;;15.50;99.90;;;;;;5076131;28;20119;-62
2022/10/20 03:45:02;;;;;;;34.45;20.13;;;15.50;99.90;;;;;;5076071;28;20051;-62
2022/10/20 03:47:28;;;;;;;37.53;20.27;;;15.50;99.90;;;;;;5074983;28;20049;-62
2022/10/20 03:49:55;;;;;;;38.50;20.92;;;15.50;99.90;;;;;;5075591;28;20078;-63
2022/10/20 03:52:22;;;;;;;30.20;19.38;;;15.50;99.90;;;;;;5075852;28;20037;-63
2022/10/20 03:54:49;;;;;;;33.53;19.92;;;15.50;99.90;;;;;;5075684;28;20403;-62
2022/10/20 03:57:15;;;;;;;30.55;19.27;;;15.50;99.90;;;;;;5076101;28;20040;-63
2022/10/20 03:59:42;;;;;;;36.65;21.05;;;15.50;99.90;;;;;;5076010;28;20078;-61
2022/10/20 04:02:09;;;;;;;37.20;20.42;;;15.50;99.90;;;;;;5075615;28;20538;-61
2022/10/20 04:04:36;;;;;;;33.65;19.83;;;15.50;99.90;;;;;;5075352;28;20063;-63
2022/10/20 04:07:02;;;;;;;33.72;19.98;;;15.50;99.90;;;;;;5075488;28;20427;-61
2022/10/20 04:09:29;;;;;;;32.30;21.33;;;15.50;99.90;;;;;;5075779;28;20067;-63
2022/10/20 04:11:56;;;;;;;36.42;20.88;;;15.60;99.90;;;;;;5075030;28;20068;-62
2022/10/20 04:14:22;;;;;;;32.67;20.73;;;15.60;99.90;;;;;;5075330;28;20044;-62
2022/10/20 04:16:49;;;;;;;37.50;20.65;;;15.60;99.90;;;;;;5075235;28;20036;-62
2022/10/20 04:19:16;;;;;;;33.10;21.35;;;15.50;99.90;;;;;;5075072;28;20557;-64
2022/10/20 04:21:43;;;;;;;36.53;20.55;;;15.60;99.90;;;;;;5075420;28;20550;-61
2022/10/20 04:24:09;;;;;;;30.83;19.80;;;15.60;99.90;;;;;;5075172;28;20040;-62
2022/10/20 04:26:36;;;;;;;34.17;20.00;;;15.60;99.90;;;;;;5075067;28;20131;-62
2022/10/20 04:29:03;;;;;;;36.03;19.85;;;15.60;99.90;;;;;;5075170;28;20506;-62
2022/10/20 04:31:29;;;;;;;28.83;18.90;;;15.60;99.90;;;;;;5073677;28;20056;-62
2022/10/20 04:33:56;;;;;;;31.80;19.42;;;15.60;99.90;;;;;;5075006;28;20040;-62
2022/10/20 04:36:23;;;;;;;39.83;19.65;;;15.60;99.90;;;;;;5075173;28;20037;-62
2022/10/20 04:38:49;;;;;;;31.35;20.15;;;15.70;99.90;;;;;;5075357;28;20044;-61
2022/10/20 04:41:16;;;;;;;32.97;20.00;;;15.60;99.90;;;;;;5075107;28;20040;-62
2022/10/20 04:43:43;;;;;;;32.42;19.50;;;15.60;99.90;;;;;;5073846;28;20468;-61
2022/10/20 04:46:10;;;;;;;29.95;20.00;;;15.60;99.90;;;;;;5074876;28;20072;-62
2022/10/20 04:48:36;;;;;;;30.48;19.52;;;15.60;99.90;;;;;;5074690;28;20471;-61
2022/10/20 04:51:03;;;;;;;29.63;18.95;;;15.70;99.90;;;;;;5074824;28;20045;-61
2022/10/20 04:53:30;;;;;;;30.63;20.60;;;15.70;99.90;;;;;;5074703;28;20111;-62
2022/10/20 04:55:56;;;;;;;29.52;18.42;;;15.70;99.90;;;;;;5074439;28;20052;-61
2022/10/20 04:58:23;;;;;;;31.90;18.90;;;15.70;99.90;;;;;;5074543;28;20086;-61
2022/10/20 05:00:50;;;;;;;29.17;19.60;;;15.70;99.90;;;;;;5074208;28;20044;-62
2022/10/20 05:03:18;;;;;;;28.98;17.80;;;15.70;99.90;;;;;;5074239;28;20056;-63
2022/10/20 05:05:44;;;;;;;30.60;18.38;;;15.70;99.90;;;;;;5074196;28;20044;-62
2022/10/20 05:08:11;;;;;;;32.90;19.23;;;15.80;99.90;;;;;;5074224;28;20097;-62
2022/10/20 05:10:38;;;;;;;28.35;18.92;;;15.70;99.90;;;;;;5074569;28;20075;-63
2022/10/20 05:13:04;;;;;;;30.30;19.35;;;15.80;99.90;;;;;;5075083;28;20048;-62
2022/10/20 05:15:31;;;;;;;33.45;19.20;;;15.80;99.90;;;;;;5074146;28;20521;-61
2022/10/20 05:17:58;;;;;;;32.60;20.08;;;15.70;99.90;;;;;;5073103;28;20122;-62
2022/10/20 05:20:24;;;;;;;26.85;18.50;;;15.80;99.90;;;;;;5074488;28;20040;-61
2022/10/20 05:22:51;;;;;;;38.97;20.55;;;15.70;99.90;;;;;;5074149;28;20641;-62
2022/10/20 05:25:18;;;;;;;35.78;19.10;;;15.80;99.90;;;;;;5073226;28;20064;-62
2022/10/20 05:28:01;;;;;;;30.45;17.65;;;15.80;99.90;;;;;;5074071;28;20131;-62
2022/10/20 05:30:28;;;;;;;35.22;18.65;;;15.80;99.90;;;;;;5074348;28;20052;-61
2022/10/20 05:32:55;;;;;;;34.28;19.92;;;15.70;99.90;;;;;;5072744;28;20043;-62
2022/10/20 05:35:22;;;;;;;36.65;19.20;;;15.80;99.90;;;;;;5074123;28;20044;-62
2022/10/20 05:37:48;;;;;;;32.50;19.95;;;15.80;99.90;;;;;;5074376;28;20541;-61
2022/10/20 05:40:15;;;;;;;27.63;19.52;;;15.80;99.90;;;;;;5072574;28;20111;-62
2022/10/20 05:42:42;;;;;;;36.92;19.45;;;15.70;99.90;;;;;;5072996;28;20074;-62
2022/10/20 05:45:08;;;;;;;32.63;19.77;;;15.80;99.90;;;;;;5073773;28;20483;-61
2022/10/20 05:47:35;;;;;;;28.25;19.40;;;15.80;99.90;;;;;;5072317;28;20047;-62
2022/10/20 05:50:02;;;;;;;33.42;20.08;;;15.80;99.90;;;;;;5074021;28;20079;-62
2022/10/20 05:52:28;;;;;;;31.90;19.38;;;15.70;99.90;;;;;;5073745;28;20127;-61
2022/10/20 05:54:55;;;;;;;33.45;20.13;;;15.70;99.90;;;;;;5073385;28;20036;-62
2022/10/20 05:57:22;;;;;;;36.42;21.42;;;15.80;99.90;;;;;;5074124;28;20095;-62
2022/10/20 05:59:49;;;;;;;38.47;21.00;;;15.80;99.90;;;;;;5072267;28;20488;-63
2022/10/20 06:02:15;;;;;;;38.13;20.40;;;15.70;99.90;;;;;;5073878;28;20079;-60
2022/10/20 06:04:42;;;;;;;35.90;20.25;;;15.70;99.90;;;;;;5073121;28;20060;-61
2022/10/20 06:07:09;;;;;;;37.80;21.98;;;15.70;99.90;;;;;;5073782;28;20055;-61
2022/10/20 06:09:36;;;;;;;38.03;20.90;;;15.70;99.90;;;;;;5072804;28;20036;-61
2022/10/20 06:12:02;;;;;;;36.83;20.75;;;15.70;99.90;;;;;;5072202;28;20048;-62
2022/10/20 06:14:29;;;;;;;34.08;19.55;;;15.80;99.90;;;;;;5073239;28;20044;-63
2022/10/20 06:16:56;;;;;;;39.60;21.38;;;15.80;99.90;;;;;;5073851;28;20060;-61
2022/10/20 06:19:22;;;;;;;36.97;21.40;;;15.80;99.90;;;;;;5073591;28;20105;-62
2022/10/20 06:21:49;;;;;;;36.50;20.30;;;15.80;99.90;;;;;;5073774;28;20051;-62
2022/10/20 06:24:16;;;;;;;34.88;20.80;;;15.80;99.90;;;;;;5073000;28;20041;-62
2022/10/20 06:26:43;;;;;;;33.47;19.45;;;15.80;99.90;;;;;;5073204;28;20041;-61
2022/10/20 06:29:09;;;;;;;32.30;19.45;;;15.80;99.90;;;;;;5073300;28;20557;-62
2022/10/20 06:31:37;;;;;;;30.98;19.15;;;15.80;99.90;;;;;;5073123;28;20045;-63
2022/10/20 06:34:04;;;;;;;36.08;20.50;;;15.80;99.90;;;;;;5072973;28;20124;-62
2022/10/20 06:36:31;;;;;;;32.10;19.65;;;15.90;99.90;;;;;;5074259;28;20075;-62
2022/10/20 06:38:58;;;;;;;30.05;19.85;;;15.80;99.90;;;;;;5077242;28;20094;-61
2022/10/20 06:41:24;;;;;;;32.00;19.95;;;15.80;99.90;;;;;;5077399;28;20132;-62
2022/10/20 06:43:56;;;;;;;32.13;20.13;;;15.90;99.90;;;;;;5077143;28;20047;-61
2022/10/20 06:46:23;;;;;;;28.77;19.30;;;15.80;99.90;;;;;;5077273;28;20479;-62
2022/10/20 06:48:50;;;;;;;26.98;17.90;;;15.80;99.90;;;;;;5077098;28;20087;-63
2022/10/20 06:51:23;;;;;;;27.08;18.55;;;15.80;99.90;;;;;;5076858;28;20036;-61
2022/10/20 06:53:50;;;;;;;28.25;19.63;;;15.90;99.90;;;;;;5076747;28;20036;-62
2022/10/20 06:56:17;;;;;;;33.42;19.10;;;15.90;99.90;;;;;;5076753;28;20044;-62
2022/10/20 06:58:43;;;;;;;27.60;19.45;;;15.90;99.90;;;;;;5076922;28;20064;-62
2022/10/20 07:01:10;;;;;;;23.27;18.38;;;15.90;99.90;;;;;;5076704;28;20044;-60
2022/10/20 07:03:37;;;;;;;28.55;19.23;;;15.90;99.90;;;;;;5076651;28;20052;-61
2022/10/20 07:06:03;;;;;;;27.08;20.02;;;15.90;99.90;;;;;;5076528;28;20048;-61
2022/10/20 07:08:30;;;;;;;30.27;20.25;;;15.90;99.90;;;;;;5076913;28;20044;-61
2022/10/20 07:10:57;;;;;;;33.75;19.85;;;15.90;99.90;;;;;;5076453;28;20532;-61
2022/10/20 07:13:24;;;;;;;31.50;20.25;;;15.90;99.90;;;;;;5076784;28;20064;-61
2022/10/20 07:15:50;;;;;;;26.58;19.33;;;15.90;99.90;;;;;;5075027;28;20037;-61
2022/10/20 07:18:17;;;;;;;24.77;18.23;;;15.90;99.90;;;;;;5076249;28;20045;-62
2022/10/20 07:20:44;;;;;;;26.63;18.75;;;15.90;99.90;;;;;;5074926;28;20036;-62
2022/10/20 07:23:11;;;;;;;30.52;19.63;;;15.90;99.90;;;;;;5076223;28;20056;-62
2022/10/20 07:25:37;;;;;;;31.63;20.00;;;15.90;99.90;;;;;;5076213;28;20041;-62
2022/10/20 07:28:04;;;;;;;29.25;19.33;;;15.90;99.90;;;;;;5074696;28;20462;-60
2022/10/20 07:30:31;;;;;;;24.00;19.67;;;15.90;99.90;;;;;;5076658;28;20086;-61
2022/10/20 07:32:58;;;;;;;27.85;20.25;;;15.90;99.90;;;;;;5076147;28;20048;-62
2022/10/20 07:35:24;;;;;;;22.60;17.02;;;15.90;99.90;;;;;;5076003;28;20068;-62
2022/10/20 07:37:51;;;;;;;24.15;17.80;;;15.90;99.90;;;;;;5076786;28;20086;-61
2022/10/20 07:40:18;;;;;;;16.95;13.32;;;15.90;99.90;;;;;;5076037;28;20075;-61
2022/10/20 07:42:44;;;;;;;21.25;13.80;;;16.00;99.90;;;;;;5076121;28;20547;-61
2022/10/20 07:45:11;;;;;;;20.15;15.05;;;16.00;99.90;;;;;;5075844;28;20086;-62
2022/10/20 07:47:38;;;;;;;20.80;14.90;;;16.00;99.90;;;;;;5074943;28;20487;-61
2022/10/20 07:50:07;;;;;;;48.22;33.33;;;16.00;99.90;;;;;;5075977;28;20105;-62
2022/10/20 07:52:34;;;;;;;78.85;70.20;;;16.00;99.90;;;;;;5075573;28;20067;-62
2022/10/20 07:55:01;;;;;;;80.97;72.18;;;16.10;99.90;;;;;;5075275;28;20045;-63
2022/10/20 07:57:48;;;;;;;34.33;22.58;;;16.10;99.90;;;;;;5075663;28;20039;-62
2022/10/20 08:00:14;;;;;;;20.75;14.02;;;16.10;99.90;;;;;;5075255;28;20044;-63
2022/10/20 08:02:41;;;;;;;17.77;13.40;;;16.10;99.90;;;;;;5073877;28;20056;-63
2022/10/20 08:05:08;;;;;;;21.08;14.40;;;16.10;99.90;;;;;;5075697;28;20040;-61
2022/10/20 08:07:35;;;;;;;20.67;13.15;;;16.10;99.90;;;;;;5074242;28;20379;-62
2022/10/20 08:10:02;;;;;;;26.00;14.18;;;16.10;99.90;;;;;;5075310;28;20037;-62
2022/10/20 08:12:28;;;;;;;32.83;13.00;;;16.10;99.90;;;;;;5075511;28;20127;-62
2022/10/20 08:14:55;;;;;;;77.65;14.15;;;16.10;99.90;;;;;;5071785;28;20044;-61
2022/10/20 08:17:26;;;;;;;25.17;12.18;;;16.10;99.90;;;;;;5072086;28;20036;-61
2022/10/20 08:19:53;;;;;;;33.83;12.70;;;16.20;99.90;;;;;;5073459;28;20044;-61
2022/10/20 08:22:40;;;;;;;60.45;13.55;;;16.20;99.90;;;;;;5055556;28;20062;-63
2022/10/20 08:25:06;;;;;;;46.40;14.35;;;16.20;99.90;;;;;;5073982;28;20124;-62
2022/10/20 08:27:33;;;;;;;20.42;11.50;;;16.20;99.90;;;;;;5074465;28;20041;-62
2022/10/20 08:30:00;;;;;;;15.27;10.00;;;16.20;99.90;;;;;;5073697;28;20040;-61
2022/10/20 08:32:47;;;;;;;24.73;10.95;;;16.20;99.90;;;;;;5074301;28;20040;-62
2022/10/20 08:35:14;;;;;;;21.75;11.80;;;16.30;99.90;;;;;;5074107;28;20048;-60
2022/10/20 08:37:40;;;;;;;18.55;10.82;;;16.30;99.90;;;;;;5073665;28;20552;-62
2022/10/20 08:40:07;;;;;;;26.80;12.50;;;16.30;99.90;;;;;;5074104;28;20040;-60
2022/10/20 08:42:34;;;;;;;30.98;11.93;;;16.30;99.90;;;;;;5073918;28;20433;-62
2022/10/20 08:45:00;;;;;;;19.73;11.95;;;16.30;99.90;;;;;;5073849;28;20479;-62
2022/10/20 08:47:27;;;;;;;19.35;11.40;;;16.40;99.90;;;;;;5073837;28;20505;-62
2022/10/20 08:49:58;;;;;;;19.17;11.90;;;16.40;99.90;;;;;;5073860;28;20070;-60
2022/10/20 08:52:25;;;;;;;52.60;35.92;;;16.50;99.90;;;;;;5073636;28;20123;-61
2022/10/20 08:54:52;;;;;;;26.75;15.40;;;16.50;99.90;;;;;;5073416;28;20108;-62
2022/10/20 08:57:19;;;;;;;44.67;28.10;;;16.60;99.90;;;;;;5073600;28;20076;-62
2022/10/20 08:59:46;;;;;;;22.90;16.20;;;16.60;99.90;;;;;;5073733;28;20052;-61
2022/10/20 09:02:12;;;;;;;21.35;15.43;;;16.60;99.90;;;;;;5073619;28;20037;-61
2022/10/20 09:04:39;;;;;;;33.88;17.33;;;16.60;99.90;;;;;;5073270;28;20143;-63
2022/10/20 09:07:06;;;;;;;28.67;13.75;;;16.60;99.90;;;;;;5073340;28;20040;-61
2022/10/20 09:09:32;;;;;;;20.67;11.77;;;16.60;99.90;;;;;;5073392;28;20049;-61
2022/10/20 09:11:59;;;;;;;19.42;11.30;;;16.60;99.90;;;;;;5073470;28;20563;-62
2022/10/20 09:14:26;;;;;;;21.88;17.33;;;16.60;99.90;;;;;;5073113;28;20476;-62
2022/10/20 09:16:54;;;;;;;24.65;15.13;;;16.60;99.90;;;;;;5072736;28;20043;-62
2022/10/20 09:19:26;;;;;;;21.30;16.08;;;16.60;99.90;;;;;;5073290;28;20036;-61
2022/10/20 09:21:52;;;;;;;30.42;13.27;;;16.70;99.90;;;;;;5073360;28;20479;-60
2022/10/20 09:24:19;;;;;;;17.92;11.55;;;16.70;99.90;;;;;;5064505;28;20102;-61
2022/10/20 09:26:46;;;;;;;16.42;10.68;;;16.70;99.90;;;;;;5073308;28;20352;-61
2022/10/20 09:29:25;;;;;;;15.15;10.63;;;16.70;99.90;;;;;;5072763;28;20048;-63
2022/10/20 09:31:52;;;;;;;28.17;11.45;;;16.70;99.90;;;;;;5073272;28;20536;-62
2022/10/20 09:34:19;;;;;;;82.90;74.65;;;16.70;99.90;;;;;;5072372;28;20044;-62
2022/10/20 09:36:46;;;;;;;30.92;27.17;;;16.70;99.90;;;;;;5072875;28;20044;-63
2022/10/20 09:39:13;;;;;;;31.73;20.67;;;16.70;99.90;;;;;;5073279;28;20120;-61
2022/10/20 09:41:39;;;;;;;25.58;12.35;;;16.80;99.90;;;;;;5072703;28;20041;-62
2022/10/20 09:44:06;;;;;;;25.17;11.02;;;16.80;99.90;;;;;;5072947;28;20040;-61
2022/10/20 09:46:33;;;;;;;39.22;12.10;;;16.80;99.90;;;;;;5072874;28;20469;-62
2022/10/20 09:48:59;;;;;;;20.48;9.63;;;16.80;99.90;;;;;;5072466;28;20123;-61
2022/10/20 09:51:26;;;;;;;13.63;9.30;;;16.90;99.90;;;;;;5072731;28;20545;-59
2022/10/20 09:53:53;;;;;;;22.05;8.57;;;16.90;99.90;;;;;;5071854;28;20395;-62
2022/10/20 09:56:20;;;;;;;20.75;8.02;;;16.90;99.90;;;;;;5071242;28;20044;-62
2022/10/20 09:58:46;;;;;;;9.40;7.00;;;17.00;99.90;;;;;;5072716;28;20446;-61
2022/10/20 10:01:13;;;;;;;11.68;7.68;;;17.00;99.90;;;;;;5072847;28;20486;-61
2022/10/20 10:03:40;;;;;;;17.48;7.72;;;17.00;99.90;;;;;;5072258;28;20080;-61
2022/10/20 10:06:07;;;;;;;19.48;7.82;;;17.00;99.90;;;;;;5072410;28;20068;-63
2022/10/20 10:08:34;;;;;;;13.15;7.05;;;17.00;99.90;;;;;;5072305;28;20131;-62
2022/10/20 10:11:01;;;;;;;12.73;6.78;;;17.00;99.90;;;;;;5072029;28;20051;-63
2022/10/20 10:13:27;;;;;;;17.15;7.72;;;17.00;99.90;;;;;;5071091;28;20086;-62
2022/10/20 10:15:54;;;;;;;16.90;6.50;;;17.00;99.90;;;;;;5071579;28;20056;-63
2022/10/20 10:18:21;;;;;;;15.45;6.30;;;16.90;99.90;;;;;;5072449;28;20942;-62
2022/10/20 10:20:47;;;;;;;9.45;5.63;;;16.90;99.90;;;;;;5071293;28;20394;-63
2022/10/20 10:23:14;;;;;;;10.90;5.43;;;16.90;99.90;;;;;;5072626;28;20045;-62
2022/10/20 10:25:41;;;;;;;20.17;6.80;;;16.80;99.90;;;;;;5072492;28;20111;-62
2022/10/20 10:28:08;;;;;;;13.00;5.93;;;16.70;99.90;;;;;;5072442;28;20119;-63
2022/10/20 10:30:34;;;;;;;78.85;8.60;;;16.60;99.90;;;;;;5072610;28;20127;-61
2022/10/20 10:33:01;;;;;;;11.98;5.38;;;16.60;99.90;;;;;;5072646;28;20482;-61
2022/10/20 10:35:28;;;;;;;11.65;5.45;;;16.60;99.90;;;;;;5072398;28;20033;-60
2022/10/20 10:37:54;;;;;;;11.05;5.95;;;16.60;99.90;;;;;;5072219;28;20123;-62
2022/10/20 10:40:23;;;;;;;15.43;6.22;;;16.50;99.90;;;;;;5065875;28;20480;-62
2022/10/20 10:42:50;;;;;;;9.60;6.15;;;16.50;99.90;;;;;;5065949;28;20082;-62
2022/10/20 10:45:17;;;;;;;10.55;5.93;;;16.50;99.90;;;;;;5065952;28;20040;-63
2022/10/20 10:47:44;;;;;;;12.27;6.40;;;16.50;99.90;;;;;;5069553;28;20124;-62
2022/10/20 10:50:11;;;;;;;13.80;7.60;;;16.50;99.90;;;;;;5065878;28;20127;-61
2022/10/20 10:52:38;;;;;;;14.40;7.00;;;16.60;99.90;;;;;;5072253;28;20060;-62
2022/10/20 10:55:05;;;;;;;15.77;7.65;;;16.60;99.90;;;;;;5072104;28;20045;-60
2022/10/20 10:57:32;;;;;;;10.13;4.75;;;16.70;99.90;;;;;;5072228;28;20170;-63
2022/10/20 10:59:59;;;;;;;16.35;6.30;;;16.80;99.90;;;;;;5072217;28;20577;-61
2022/10/20 11:02:25;;;;;;;10.30;5.35;;;16.80;99.90;;;;;;5071796;28;20037;-62
2022/10/20 11:04:52;;;;;;;10.20;5.43;;;16.90;99.90;;;;;;5072034;28;20043;-61
2022/10/20 11:07:19;;;;;;;8.52;4.82;;;17.00;99.90;;;;;;5071958;28;20041;-62
2022/10/20 11:09:46;;;;;;;9.32;5.43;;;17.00;99.90;;;;;;5072235;28;20064;-62
2022/10/20 11:12:12;;;;;;;24.23;15.27;;;17.10;99.90;;;;;;5070740;28;20137;-62
2022/10/20 11:14:39;;;;;;;11.75;5.88;;;17.20;99.90;;;;;;5071506;28;20047;-61
2022/10/20 11:17:06;;;;;;;13.13;4.85;;;17.20;99.90;;;;;;5072273;28;20047;-63
2022/10/20 11:19:32;;;;;;;29.75;6.32;;;17.40;99.90;;;;;;5071537;28;20456;-61
2022/10/20 11:21:59;;;;;;;9.48;4.80;;;17.40;99.90;;;;;;5072043;28;20037;-64
2022/10/20 11:24:26;;;;;;;6.72;4.10;;;17.50;99.90;;;;;;5075195;28;20127;-61
2022/10/20 11:26:53;;;;;;;9.90;4.80;;;17.50;99.90;;;;;;5074859;28;20446;-62
2022/10/20 11:29:20;;;;;;;8.50;4.47;;;17.60;99.90;;;;;;5075272;28;20043;-62
2022/10/20 11:31:46;;;;;;;9.68;4.30;;;17.60;99.90;;;;;;5075650;28;20072;-62
2022/10/20 11:34:13;;;;;;;7.35;4.15;;;17.70;99.90;;;;;;5075485;28;20074;-62
2022/10/20 11:36:40;;;;;;;9.35;5.00;;;17.70;99.90;;;;;;5073924;28;20041;-59
2022/10/20 11:39:07;;;;;;;8.57;4.53;;;17.80;99.90;;;;;;5075650;28;20036;-61
2022/10/20 11:41:34;;;;;;;8.05;4.18;;;17.80;99.90;;;;;;5074963;28;20117;-61
2022/10/20 11:44:00;;;;;;;10.05;5.07;;;17.90;99.90;;;;;;5075500;28;20068;-60
2022/10/20 11:46:27;;;;;;;9.52;4.35;;;17.80;99.90;;;;;;5075592;28;20499;-60
2022/10/20 11:48:54;;;;;;;9.38;4.43;;;17.80;99.90;;;;;;5074955;28;20072;-61
2022/10/20 11:51:23;;;;;;;8.07;3.90;;;17.90;99.90;;;;;;5075235;28;20094;-63
2022/10/20 11:53:50;;;;;;;11.98;6.40;;;17.90;99.90;;;;;;5074502;28;20588;-63
2022/10/20 11:56:17;;;;;;;9.68;5.70;;;17.90;99.90;;;;;;5075238;28;20068;-64
2022/10/20 11:58:43;;;;;;;11.00;4.43;;;17.90;99.90;;;;;;5075360;28;20040;-63
2022/10/20 12:01:10;;;;;;;13.10;6.13;;;17.90;99.90;;;;;;5059893;28;20115;-63
2022/10/20 12:03:37;;;;;;;11.07;5.35;;;17.90;99.90;;;;;;5075062;28;20165;-63
2022/10/20 12:06:03;;;;;;;13.13;4.50;;;17.90;99.90;;;;;;5074169;28;20483;-63
2022/10/20 12:08:36;;;;;;;13.55;3.97;;;17.90;99.90;;;;;;5075069;28;20402;-63
2022/10/20 12:11:03;;;;;;;47.97;5.65;;;17.90;99.90;;;;;;5069423;28;20071;-64
2022/10/20 12:13:29;;;;;;;42.20;5.05;;;17.90;99.90;;;;;;5074021;28;20516;-60
2022/10/20 12:15:56;;;;;;;224.57;12.82;;;17.90;99.90;;;;;;5073882;28;20083;-62
2022/10/20 12:18:23;;;;;;;38.35;4.50;;;17.90;99.90;;;;;;5074406;28;20105;-61
2022/10/20 12:20:50;;;;;;;421.60;22.77;;;17.80;99.90;;;;;;5074801;28;20518;-62
2022/10/20 12:23:16;;;;;;;44.03;5.70;;;17.80;99.90;;;;;;5074115;28;20072;-61
2022/10/20 12:25:43;;;;;;;19.40;4.00;;;17.80;99.90;;;;;;5073734;28;20101;-62
2022/10/20 12:28:10;;;;;;;10.43;3.35;;;17.70;99.90;;;;;;5071848;28;20037;-63
2022/10/20 12:30:36;;;;;;;75.40;6.63;;;17.60;99.90;;;;;;5074849;28;20446;-62